sensor_id;sensor_type;location;lat;lon;timestamp;temperature;humidity
68177;DHT22;56478;50.982;7.032;2023-11-21T00:00:14;9.59;91.00
68177;DHT22;56478;50.982;7.032;2023-11-21T00:02:40;9.62;91.04
68177;DHT22;56478;50.982;7.032;2023-11-21T00:05:07;9.66;90.70
68177;DHT22;56478;50.982;7.032;2023-11-21T00:07:33;9.66;90.53
68177;DHT22;56478;50.982;7.032;2023-11-21T00:09:59;9.69;90.81
68177;DHT22;56478;50.982;7.032;2023-11-21T00:12:24;9.70;90.91
68177;DHT22;56478;50.982;7.032;2023-11-21T00:14:50;9.64;90.59
68177;DHT22;56478;50.982;7.032;2023-11-21T00:17:15;9.69;90.75
68177;DHT22;56478;50.982;7.032;2023-11-21T00:19:40;9.76;91.17
68177;DHT22;56478;50.982;7.032;2023-11-21T00:22:08;9.71;90.55
68177;DHT22;56478;50.982;7.032;2023-11-21T00:24:34;9.67;90.74
68177;DHT22;56478;50.982;7.032;2023-11-21T00:26:59;9.66;90.94
68177;DHT22;56478;50.982;7.032;2023-11-21T00:29:25;9.67;90.91
68177;DHT22;56478;50.982;7.032;2023-11-21T00:31:51;9.67;90.69
68177;DHT22;56478;50.982;7.032;2023-11-21T00:34:16;9.64;90.68
68177;DHT22;56478;50.982;7.032;2023-11-21T00:36:41;9.69;90.69
68177;DHT22;56478;50.982;7.032;2023-11-21T00:39:07;9.62;90.81
68177;DHT22;56478;50.982;7.032;2023-11-21T00:41:32;9.59;91.25
68177;DHT22;56478;50.982;7.032;2023-11-21T00:43:58;9.52;90.98
68177;DHT22;56478;50.982;7.032;2023-11-21T00:46:24;9.49;91.21
68177;DHT22;56478;50.982;7.032;2023-11-21T00:48:52;9.38;91.36
68177;DHT22;56478;50.982;7.032;2023-11-21T00:51:19;9.34;91.51
68177;DHT22;56478;50.982;7.032;2023-11-21T00:53:44;9.35;91.39
68177;DHT22;56478;50.982;7.032;2023-11-21T00:56:10;9.38;91.41
68177;DHT22;56478;50.982;7.032;2023-11-21T00:58:35;9.19;91.15
68177;DHT22;56478;50.982;7.032;2023-11-21T01:01:01;9.17;91.38
68177;DHT22;56478;50.982;7.032;2023-11-21T01:03:27;9.18;91.30
68177;DHT22;56478;50.982;7.032;2023-11-21T01:05:53;9.10;91.27
68177;DHT22;56478;50.982;7.032;2023-11-21T01:08:19;9.07;91.12
68177;DHT22;56478;50.982;7.032;2023-11-21T01:10:45;9.03;91.41
68177;DHT22;56478;50.982;7.032;2023-11-21T01:13:10;9.04;91.01
68177;DHT22;56478;50.982;7.032;2023-11-21T01:15:36;8.96;90.95
68177;DHT22;56478;50.982;7.032;2023-11-21T01:18:01;8.96;91.02
68177;DHT22;56478;50.982;7.032;2023-11-21T01:20:28;8.90;90.99
68177;DHT22;56478;50.982;7.032;2023-11-21T01:22:54;8.81;91.14
68177;DHT22;56478;50.982;7.032;2023-11-21T01:25:20;8.83;91.61
68177;DHT22;56478;50.982;7.032;2023-11-21T01:27:46;8.87;91.32
68177;DHT22;56478;50.982;7.032;2023-11-21T01:30:11;8.85;91.14
68177;DHT22;56478;50.982;7.032;2023-11-21T01:32:37;8.80;90.97
68177;DHT22;56478;50.982;7.032;2023-11-21T01:35:02;8.80;91.37
68177;DHT22;56478;50.982;7.032;2023-11-21T01:37:28;8.90;91.27
68177;DHT22;56478;50.982;7.032;2023-11-21T01:39:54;8.96;91.12
68177;DHT22;56478;50.982;7.032;2023-11-21T01:42:22;8.92;91.27
68177;DHT22;56478;50.982;7.032;2023-11-21T01:44:48;8.94;91.18
68177;DHT22;56478;50.982;7.032;2023-11-21T01:47:14;8.88;91.18
68177;DHT22;56478;50.982;7.032;2023-11-21T01:49:42;8.88;91.30
68177;DHT22;56478;50.982;7.032;2023-11-21T01:52:08;8.92;91.21
68177;DHT22;56478;50.982;7.032;2023-11-21T01:54:36;8.87;91.21
68177;DHT22;56478;50.982;7.032;2023-11-21T01:57:02;8.83;91.09
68177;DHT22;56478;50.982;7.032;2023-11-21T01:59:34;8.81;90.92
68177;DHT22;56478;50.982;7.032;2023-11-21T02:02:00;8.72;91.09
68177;DHT22;56478;50.982;7.032;2023-11-21T02:04:25;8.70;91.10
68177;DHT22;56478;50.982;7.032;2023-11-21T02:06:51;8.66;90.81
68177;DHT22;56478;50.982;7.032;2023-11-21T02:09:16;8.56;91.04
68177;DHT22;56478;50.982;7.032;2023-11-21T02:11:43;8.45;91.60
68177;DHT22;56478;50.982;7.032;2023-11-21T02:14:09;8.45;91.12
68177;DHT22;56478;50.982;7.032;2023-11-21T02:16:35;8.46;91.31
68177;DHT22;56478;50.982;7.032;2023-11-21T02:19:01;8.42;91.26
68177;DHT22;56478;50.982;7.032;2023-11-21T02:21:26;8.41;91.51
68177;DHT22;56478;50.982;7.032;2023-11-21T02:23:52;8.45;91.64
68177;DHT22;56478;50.982;7.032;2023-11-21T02:26:18;8.46;91.66
68177;DHT22;56478;50.982;7.032;2023-11-21T02:28:43;8.53;91.40
68177;DHT22;56478;50.982;7.032;2023-11-21T02:31:09;8.56;91.31
68177;DHT22;56478;50.982;7.032;2023-11-21T02:33:34;8.65;91.31
68177;DHT22;56478;50.982;7.032;2023-11-21T02:36:00;8.66;91.55
68177;DHT22;56478;50.982;7.032;2023-11-21T02:38:26;8.69;91.40
68177;DHT22;56478;50.982;7.032;2023-11-21T02:40:51;8.72;91.27
68177;DHT22;56478;50.982;7.032;2023-11-21T02:43:17;8.79;90.93
68177;DHT22;56478;50.982;7.032;2023-11-21T02:45:42;8.81;91.03
68177;DHT22;56478;50.982;7.032;2023-11-21T02:48:08;8.85;91.25
68177;DHT22;56478;50.982;7.032;2023-11-21T02:50:33;8.91;90.89
68177;DHT22;56478;50.982;7.032;2023-11-21T02:53:00;8.97;90.98
68177;DHT22;56478;50.982;7.032;2023-11-21T02:55:26;8.98;90.64
68177;DHT22;56478;50.982;7.032;2023-11-21T02:57:54;8.97;90.32
68177;DHT22;56478;50.982;7.032;2023-11-21T03:00:21;8.97;90.48
68177;DHT22;56478;50.982;7.032;2023-11-21T03:02:49;9.00;90.07
68177;DHT22;56478;50.982;7.032;2023-11-21T03:05:14;8.98;90.22
68177;DHT22;56478;50.982;7.032;2023-11-21T03:07:40;9.04;90.36
68177;DHT22;56478;50.982;7.032;2023-11-21T03:10:06;9.05;90.93
68177;DHT22;56478;50.982;7.032;2023-11-21T03:12:34;9.10;90.32
68177;DHT22;56478;50.982;7.032;2023-11-21T03:14:59;9.10;90.66
68177;DHT22;56478;50.982;7.032;2023-11-21T03:17:25;9.14;90.92
68177;DHT22;56478;50.982;7.032;2023-11-21T03:19:50;9.19;90.44
68177;DHT22;56478;50.982;7.032;2023-11-21T03:22:17;9.17;90.47
68177;DHT22;56478;50.982;7.032;2023-11-21T03:24:42;9.21;90.65
68177;DHT22;56478;50.982;7.032;2023-11-21T03:27:08;9.17;90.94
68177;DHT22;56478;50.982;7.032;2023-11-21T03:29:33;9.21;90.35
68177;DHT22;56478;50.982;7.032;2023-11-21T03:31:59;9.26;90.40
68177;DHT22;56478;50.982;7.032;2023-11-21T03:34:25;9.26;90.31
68177;DHT22;56478;50.982;7.032;2023-11-21T03:36:53;9.29;90.31
68177;DHT22;56478;50.982;7.032;2023-11-21T03:39:19;9.29;90.50
68177;DHT22;56478;50.982;7.032;2023-11-21T03:41:45;9.29;90.40
68177;DHT22;56478;50.982;7.032;2023-11-21T03:44:10;9.32;90.36
68177;DHT22;56478;50.982;7.032;2023-11-21T03:46:35;9.32;90.25
68177;DHT22;56478;50.982;7.032;2023-11-21T03:49:01;9.32;90.53
68177;DHT22;56478;50.982;7.032;2023-11-21T03:51:26;9.29;91.01
68177;DHT22;56478;50.982;7.032;2023-11-21T03:53:52;9.31;90.36
68177;DHT22;56478;50.982;7.032;2023-11-21T03:56:18;9.34;90.49
68177;DHT22;56478;50.982;7.032;2023-11-21T03:58:43;9.34;90.59
68177;DHT22;56478;50.982;7.032;2023-11-21T04:01:08;9.29;90.56
68177;DHT22;56478;50.982;7.032;2023-11-21T04:03:34;9.39;90.29
68177;DHT22;56478;50.982;7.032;2023-11-21T04:05:59;9.35;90.01
68177;DHT22;56478;50.982;7.032;2023-11-21T04:08:26;9.26;90.34
68177;DHT22;56478;50.982;7.032;2023-11-21T04:10:51;9.24;90.30
68177;DHT22;56478;50.982;7.032;2023-11-21T04:13:18;9.24;90.20
68177;DHT22;56478;50.982;7.032;2023-11-21T04:15:44;9.19;90.25
68177;DHT22;56478;50.982;7.032;2023-11-21T04:18:09;9.26;90.26
68177;DHT22;56478;50.982;7.032;2023-11-21T04:20:35;9.26;90.31
68177;DHT22;56478;50.982;7.032;2023-11-21T04:23:00;9.24;90.34
68177;DHT22;56478;50.982;7.032;2023-11-21T04:25:26;9.21;90.43
68177;DHT22;56478;50.982;7.032;2023-11-21T04:27:53;9.21;90.66
68177;DHT22;56478;50.982;7.032;2023-11-21T04:30:19;9.22;90.63
68177;DHT22;56478;50.982;7.032;2023-11-21T04:32:46;9.28;90.49
68177;DHT22;56478;50.982;7.032;2023-11-21T04:35:11;9.19;90.88
68177;DHT22;56478;50.982;7.032;2023-11-21T04:37:36;9.22;90.71
68177;DHT22;56478;50.982;7.032;2023-11-21T04:40:02;9.22;91.01
68177;DHT22;56478;50.982;7.032;2023-11-21T04:42:33;9.18;91.15
68177;DHT22;56478;50.982;7.032;2023-11-21T04:44:58;9.15;91.20
68177;DHT22;56478;50.982;7.032;2023-11-21T04:47:23;9.18;91.35
68177;DHT22;56478;50.982;7.032;2023-11-21T04:49:49;9.12;91.30
68177;DHT22;56478;50.982;7.032;2023-11-21T04:52:14;9.11;91.46
68177;DHT22;56478;50.982;7.032;2023-11-21T04:54:40;9.14;91.24
68177;DHT22;56478;50.982;7.032;2023-11-21T04:57:05;9.15;91.32
68177;DHT22;56478;50.982;7.032;2023-11-21T04:59:32;9.19;90.84
68177;DHT22;56478;50.982;7.032;2023-11-21T05:01:58;9.17;91.07
68177;DHT22;56478;50.982;7.032;2023-11-21T05:04:25;9.14;91.37
68177;DHT22;56478;50.982;7.032;2023-11-21T05:06:50;9.12;91.30
68177;DHT22;56478;50.982;7.032;2023-11-21T05:09:16;9.15;91.05
68177;DHT22;56478;50.982;7.032;2023-11-21T05:11:42;9.14;91.18
68177;DHT22;56478;50.982;7.032;2023-11-21T05:14:07;9.14;91.47
68177;DHT22;56478;50.982;7.032;2023-11-21T05:16:33;9.14;90.92
68177;DHT22;56478;50.982;7.032;2023-11-21T05:19:00;9.10;91.14
68177;DHT22;56478;50.982;7.032;2023-11-21T05:21:29;9.08;91.40
68177;DHT22;56478;50.982;7.032;2023-11-21T05:23:57;9.08;91.54
68177;DHT22;56478;50.982;7.032;2023-11-21T05:26:22;9.07;91.56
68177;DHT22;56478;50.982;7.032;2023-11-21T05:28:48;9.11;91.25
68177;DHT22;56478;50.982;7.032;2023-11-21T05:31:13;9.10;91.42
68177;DHT22;56478;50.982;7.032;2023-11-21T05:33:39;9.10;91.32
68177;DHT22;56478;50.982;7.032;2023-11-21T05:36:04;9.11;91.30
68177;DHT22;56478;50.982;7.032;2023-11-21T05:38:33;9.14;91.06
68177;DHT22;56478;50.982;7.032;2023-11-21T05:40:58;9.11;91.08
68177;DHT22;56478;50.982;7.032;2023-11-21T05:43:24;9.11;91.45
68177;DHT22;56478;50.982;7.032;2023-11-21T05:45:49;9.10;91.70
68177;DHT22;56478;50.982;7.032;2023-11-21T05:48:15;9.08;91.24
68177;DHT22;56478;50.982;7.032;2023-11-21T05:50:41;9.11;91.35
68177;DHT22;56478;50.982;7.032;2023-11-21T05:53:06;9.19;91.08
68177;DHT22;56478;50.982;7.032;2023-11-21T05:55:32;9.22;90.83
68177;DHT22;56478;50.982;7.032;2023-11-21T05:57:58;9.26;90.74
68177;DHT22;56478;50.982;7.032;2023-11-21T06:00:23;9.24;90.42
68177;DHT22;56478;50.982;7.032;2023-11-21T06:02:53;9.19;90.81
68177;DHT22;56478;50.982;7.032;2023-11-21T06:05:19;9.21;91.18
68177;DHT22;56478;50.982;7.032;2023-11-21T06:07:45;9.28;90.74
68177;DHT22;56478;50.982;7.032;2023-11-21T06:10:11;9.26;90.72
68177;DHT22;56478;50.982;7.032;2023-11-21T06:12:38;9.26;90.73
68177;DHT22;56478;50.982;7.032;2023-11-21T06:15:05;9.34;90.62
68177;DHT22;56478;50.982;7.032;2023-11-21T06:17:33;9.42;90.50
68177;DHT22;56478;50.982;7.032;2023-11-21T06:20:10;9.36;90.78
68177;DHT22;56478;50.982;7.032;2023-11-21T06:22:39;9.39;90.90
68177;DHT22;56478;50.982;7.032;2023-11-21T06:25:05;9.40;90.84
68177;DHT22;56478;50.982;7.032;2023-11-21T06:27:32;9.38;90.90
68177;DHT22;56478;50.982;7.032;2023-11-21T06:29:58;9.40;90.77
68177;DHT22;56478;50.982;7.032;2023-11-21T06:32:23;9.45;90.76
68177;DHT22;56478;50.982;7.032;2023-11-21T06:34:48;9.42;90.50
68177;DHT22;56478;50.982;7.032;2023-11-21T06:37:14;9.40;90.86
68177;DHT22;56478;50.982;7.032;2023-11-21T06:39:40;9.39;90.89
68177;DHT22;56478;50.982;7.032;2023-11-21T06:42:05;9.46;90.77
68177;DHT22;56478;50.982;7.032;2023-11-21T06:44:31;9.46;91.18
68177;DHT22;56478;50.982;7.032;2023-11-21T06:46:56;9.43;91.11
68177;DHT22;56478;50.982;7.032;2023-11-21T06:49:22;9.40;90.82
68177;DHT22;56478;50.982;7.032;2023-11-21T06:51:48;9.38;91.03
68177;DHT22;56478;50.982;7.032;2023-11-21T06:54:13;9.40;91.40
68177;DHT22;56478;50.982;7.032;2023-11-21T06:56:39;9.50;91.07
68177;DHT22;56478;50.982;7.032;2023-11-21T06:59:05;9.59;90.82
68177;DHT22;56478;50.982;7.032;2023-11-21T07:01:30;9.60;90.29
68177;DHT22;56478;50.982;7.032;2023-11-21T07:03:59;9.62;90.44
68177;DHT22;56478;50.982;7.032;2023-11-21T07:06:25;9.63;90.02
68177;DHT22;56478;50.982;7.032;2023-11-21T07:08:50;9.62;90.28
68177;DHT22;56478;50.982;7.032;2023-11-21T07:11:16;9.62;90.41
68177;DHT22;56478;50.982;7.032;2023-11-21T07:13:42;9.62;90.51
68177;DHT22;56478;50.982;7.032;2023-11-21T07:16:07;9.60;90.39
68177;DHT22;56478;50.982;7.032;2023-11-21T07:18:33;9.64;90.42
68177;DHT22;56478;50.982;7.032;2023-11-21T07:20:58;9.64;90.36
68177;DHT22;56478;50.982;7.032;2023-11-21T07:23:24;9.62;90.69
68177;DHT22;56478;50.982;7.032;2023-11-21T07:25:49;9.64;90.88
68177;DHT22;56478;50.982;7.032;2023-11-21T07:28:15;9.59;90.93
68177;DHT22;56478;50.982;7.032;2023-11-21T07:30:40;9.57;90.72
68177;DHT22;56478;50.982;7.032;2023-11-21T07:33:05;9.64;91.13
68177;DHT22;56478;50.982;7.032;2023-11-21T07:35:31;9.64;90.85
68177;DHT22;56478;50.982;7.032;2023-11-21T07:37:56;9.69;90.63
68177;DHT22;56478;50.982;7.032;2023-11-21T07:40:22;9.64;90.98
68177;DHT22;56478;50.982;7.032;2023-11-21T07:42:47;9.69;90.51
68177;DHT22;56478;50.982;7.032;2023-11-21T07:45:13;9.76;90.47
68177;DHT22;56478;50.982;7.032;2023-11-21T07:47:40;9.78;90.15
68177;DHT22;56478;50.982;7.032;2023-11-21T07:50:05;9.80;90.16
68177;DHT22;56478;50.982;7.032;2023-11-21T07:52:32;9.84;89.90
68177;DHT22;56478;50.982;7.032;2023-11-21T07:54:57;9.90;89.73
68177;DHT22;56478;50.982;7.032;2023-11-21T07:57:23;9.93;89.91
68177;DHT22;56478;50.982;7.032;2023-11-21T07:59:48;9.95;90.14
68177;DHT22;56478;50.982;7.032;2023-11-21T08:02:13;9.87;89.78
68177;DHT22;56478;50.982;7.032;2023-11-21T08:04:41;9.90;89.93
68177;DHT22;56478;50.982;7.032;2023-11-21T08:07:06;9.95;89.95
68177;DHT22;56478;50.982;7.032;2023-11-21T08:09:32;9.95;89.88
68177;DHT22;56478;50.982;7.032;2023-11-21T08:11:59;9.94;90.02
68177;DHT22;56478;50.982;7.032;2023-11-21T08:14:25;9.98;89.99
68177;DHT22;56478;50.982;7.032;2023-11-21T08:16:51;9.99;89.28
68177;DHT22;56478;50.982;7.032;2023-11-21T08:19:17;10.05;89.64
68177;DHT22;56478;50.982;7.032;2023-11-21T08:21:43;10.09;89.39
68177;DHT22;56478;50.982;7.032;2023-11-21T08:24:08;10.12;89.66
68177;DHT22;56478;50.982;7.032;2023-11-21T08:26:36;10.16;89.43
68177;DHT22;56478;50.982;7.032;2023-11-21T08:29:01;10.12;89.61
68177;DHT22;56478;50.982;7.032;2023-11-21T08:31:27;10.15;89.97
68177;DHT22;56478;50.982;7.032;2023-11-21T08:33:52;10.14;89.81
68177;DHT22;56478;50.982;7.032;2023-11-21T08:36:21;10.16;89.88
68177;DHT22;56478;50.982;7.032;2023-11-21T08:38:48;10.22;89.68
68177;DHT22;56478;50.982;7.032;2023-11-21T08:41:14;10.28;89.79
68177;DHT22;56478;50.982;7.032;2023-11-21T08:43:39;10.31;89.74
68177;DHT22;56478;50.982;7.032;2023-11-21T08:46:05;10.28;89.44
68177;DHT22;56478;50.982;7.032;2023-11-21T08:48:31;10.31;89.12
68177;DHT22;56478;50.982;7.032;2023-11-21T08:50:56;10.32;89.24
68177;DHT22;56478;50.982;7.032;2023-11-21T08:53:21;10.39;89.32
68177;DHT22;56478;50.982;7.032;2023-11-21T08:55:50;10.45;89.55
68177;DHT22;56478;50.982;7.032;2023-11-21T08:58:15;10.52;89.26
68177;DHT22;56478;50.982;7.032;2023-11-21T09:00:41;10.50;88.52
68177;DHT22;56478;50.982;7.032;2023-11-21T09:03:06;10.53;89.31
68177;DHT22;56478;50.982;7.032;2023-11-21T09:05:33;10.50;89.36
68177;DHT22;56478;50.982;7.032;2023-11-21T09:07:59;10.45;89.46
68177;DHT22;56478;50.982;7.032;2023-11-21T09:10:24;10.48;89.17
68177;DHT22;56478;50.982;7.032;2023-11-21T09:12:50;10.60;88.85
68177;DHT22;56478;50.982;7.032;2023-11-21T09:15:17;10.67;88.69
68177;DHT22;56478;50.982;7.032;2023-11-21T09:17:42;10.67;89.01
68177;DHT22;56478;50.982;7.032;2023-11-21T09:20:09;10.70;88.79
68177;DHT22;56478;50.982;7.032;2023-11-21T09:22:35;10.64;89.01
68177;DHT22;56478;50.982;7.032;2023-11-21T09:25:01;10.61;89.18
68177;DHT22;56478;50.982;7.032;2023-11-21T09:27:30;10.64;88.83
68177;DHT22;56478;50.982;7.032;2023-11-21T09:29:55;10.64;89.08
68177;DHT22;56478;50.982;7.032;2023-11-21T09:32:21;10.64;88.85
68177;DHT22;56478;50.982;7.032;2023-11-21T09:34:49;10.67;89.14
68177;DHT22;56478;50.982;7.032;2023-11-21T09:37:15;10.67;88.71
68177;DHT22;56478;50.982;7.032;2023-11-21T09:39:41;10.68;89.10
68177;DHT22;56478;50.982;7.032;2023-11-21T09:47:26;10.66;89.61
68177;DHT22;56478;50.982;7.032;2023-11-21T09:49:53;10.71;89.19
68177;DHT22;56478;50.982;7.032;2023-11-21T09:52:24;10.67;89.22
68177;DHT22;56478;50.982;7.032;2023-11-21T09:54:53;10.73;88.86
68177;DHT22;56478;50.982;7.032;2023-11-21T09:57:19;10.71;88.86
68177;DHT22;56478;50.982;7.032;2023-11-21T09:59:46;10.77;88.78
68177;DHT22;56478;50.982;7.032;2023-11-21T10:02:12;10.71;88.81
68177;DHT22;56478;50.982;7.032;2023-11-21T10:04:39;10.70;88.72
68177;DHT22;56478;50.982;7.032;2023-11-21T10:07:05;10.76;88.32
68177;DHT22;56478;50.982;7.032;2023-11-21T10:09:34;10.83;88.49
68177;DHT22;56478;50.982;7.032;2023-11-21T10:12:00;10.83;88.32
68177;DHT22;56478;50.982;7.032;2023-11-21T10:14:26;10.83;88.64
68177;DHT22;56478;50.982;7.032;2023-11-21T10:16:54;10.85;88.74
68177;DHT22;56478;50.982;7.032;2023-11-21T10:19:20;10.87;88.85
68177;DHT22;56478;50.982;7.032;2023-11-21T10:21:46;10.83;88.73
68177;DHT22;56478;50.982;7.032;2023-11-21T10:24:11;10.97;88.15
68177;DHT22;56478;50.982;7.032;2023-11-21T10:26:37;10.91;88.20
68177;DHT22;56478;50.982;7.032;2023-11-21T10:29:03;10.87;88.45
68177;DHT22;56478;50.982;7.032;2023-11-21T10:31:31;10.94;87.89
68177;DHT22;56478;50.982;7.032;2023-11-21T10:36:41;10.91;88.39
68177;DHT22;56478;50.982;7.032;2023-11-21T10:39:07;10.97;88.09
68177;DHT22;56478;50.982;7.032;2023-11-21T10:41:32;11.08;87.21
68177;DHT22;56478;50.982;7.032;2023-11-21T10:43:58;11.05;87.91
68177;DHT22;56478;50.982;7.032;2023-11-21T10:46:23;11.00;88.12
68177;DHT22;56478;50.982;7.032;2023-11-21T10:48:53;10.95;88.40
68177;DHT22;56478;50.982;7.032;2023-11-21T10:51:22;11.01;88.71
68177;DHT22;56478;50.982;7.032;2023-11-21T10:53:49;10.94;88.01
68177;DHT22;56478;50.982;7.032;2023-11-21T10:56:16;10.84;88.48
68177;DHT22;56478;50.982;7.032;2023-11-21T10:58:44;10.80;88.99
68177;DHT22;56478;50.982;7.032;2023-11-21T11:01:10;10.80;88.77
68177;DHT22;56478;50.982;7.032;2023-11-21T11:03:37;10.85;88.49
68177;DHT22;56478;50.982;7.032;2023-11-21T11:06:05;10.95;88.43
68177;DHT22;56478;50.982;7.032;2023-11-21T11:08:39;10.97;88.12
68177;DHT22;56478;50.982;7.032;2023-11-21T11:11:05;11.04;88.05
68177;DHT22;56478;50.982;7.032;2023-11-21T11:13:30;11.14;87.92
68177;DHT22;56478;50.982;7.032;2023-11-21T11:15:57;11.22;87.84
68177;DHT22;56478;50.982;7.032;2023-11-21T11:18:25;11.23;88.00
68177;DHT22;56478;50.982;7.032;2023-11-21T11:20:50;11.22;87.73
68177;DHT22;56478;50.982;7.032;2023-11-21T11:25:47;11.40;86.96
68177;DHT22;56478;50.982;7.032;2023-11-21T11:28:19;11.35;87.06
68177;DHT22;56478;50.982;7.032;2023-11-21T11:31:02;11.46;87.03
68177;DHT22;56478;50.982;7.032;2023-11-21T11:38:32;11.35;87.46
68177;DHT22;56478;50.982;7.032;2023-11-21T11:41:01;11.40;87.00
68177;DHT22;56478;50.982;7.032;2023-11-21T11:43:28;11.39;87.06
68177;DHT22;56478;50.982;7.032;2023-11-21T11:45:56;11.50;86.29
68177;DHT22;56478;50.982;7.032;2023-11-21T11:48:22;11.63;86.03
68177;DHT22;56478;50.982;7.032;2023-11-21T11:51:03;11.69;86.39
68177;DHT22;56478;50.982;7.032;2023-11-21T11:53:32;11.84;85.98
68177;DHT22;56478;50.982;7.032;2023-11-21T11:58:42;11.80;86.08
68177;DHT22;56478;50.982;7.032;2023-11-21T12:01:07;11.81;85.17
68177;DHT22;56478;50.982;7.032;2023-11-21T12:03:32;11.71;85.31
68177;DHT22;56478;50.982;7.032;2023-11-21T12:05:58;11.77;85.14
68177;DHT22;56478;50.982;7.032;2023-11-21T12:08:23;11.84;84.60
68177;DHT22;56478;50.982;7.032;2023-11-21T12:10:56;11.74;85.26
68177;DHT22;56478;50.982;7.032;2023-11-21T12:13:22;11.74;84.97
68177;DHT22;56478;50.982;7.032;2023-11-21T12:15:48;11.67;85.73
68177;DHT22;56478;50.982;7.032;2023-11-21T12:18:14;11.71;84.86
68177;DHT22;56478;50.982;7.032;2023-11-21T12:20:39;11.69;85.64
68177;DHT22;56478;50.982;7.032;2023-11-21T12:23:06;11.73;85.54
68177;DHT22;56478;50.982;7.032;2023-11-21T12:25:32;11.74;85.60
68177;DHT22;56478;50.982;7.032;2023-11-21T12:27:58;11.84;85.32
68177;DHT22;56478;50.982;7.032;2023-11-21T12:30:28;11.88;85.26
68177;DHT22;56478;50.982;7.032;2023-11-21T12:32:56;11.82;85.27
68177;DHT22;56478;50.982;7.032;2023-11-21T12:35:22;11.94;85.14
68177;DHT22;56478;50.982;7.032;2023-11-21T12:37:47;11.81;85.35
68177;DHT22;56478;50.982;7.032;2023-11-21T12:40:14;11.80;84.98
68177;DHT22;56478;50.982;7.032;2023-11-21T12:42:43;11.85;85.25
68177;DHT22;56478;50.982;7.032;2023-11-21T12:50:11;11.60;86.72
68177;DHT22;56478;50.982;7.032;2023-11-21T12:52:42;11.57;86.51
68177;DHT22;56478;50.982;7.032;2023-11-21T12:55:16;11.57;86.37
68177;DHT22;56478;50.982;7.032;2023-11-21T12:57:42;11.62;86.32
68177;DHT22;56478;50.982;7.032;2023-11-21T13:00:08;11.64;85.92
68177;DHT22;56478;50.982;7.032;2023-11-21T13:02:38;11.69;86.80
68177;DHT22;56478;50.982;7.032;2023-11-21T13:05:07;11.73;85.87
68177;DHT22;56478;50.982;7.032;2023-11-21T13:07:44;11.74;85.91
68177;DHT22;56478;50.982;7.032;2023-11-21T13:10:12;11.82;85.74
68177;DHT22;56478;50.982;7.032;2023-11-21T13:12:42;11.85;84.54
68177;DHT22;56478;50.982;7.032;2023-11-21T13:15:07;11.77;85.03
68177;DHT22;56478;50.982;7.032;2023-11-21T13:17:33;11.64;85.83
68177;DHT22;56478;50.982;7.032;2023-11-21T13:19:59;11.66;85.31
68177;DHT22;56478;50.982;7.032;2023-11-21T13:22:30;11.74;84.84
68177;DHT22;56478;50.982;7.032;2023-11-21T13:24:58;11.59;85.20
68177;DHT22;56478;50.982;7.032;2023-11-21T13:27:23;11.59;84.79
68177;DHT22;56478;50.982;7.032;2023-11-21T13:29:51;11.63;85.35
68177;DHT22;56478;50.982;7.032;2023-11-21T13:32:16;11.69;84.86
68177;DHT22;56478;50.982;7.032;2023-11-21T13:34:45;11.70;84.65
68177;DHT22;56478;50.982;7.032;2023-11-21T13:37:12;11.67;84.50
68177;DHT22;56478;50.982;7.032;2023-11-21T13:39:38;11.60;84.92
68177;DHT22;56478;50.982;7.032;2023-11-21T13:42:09;11.66;84.45
68177;DHT22;56478;50.982;7.032;2023-11-21T13:44:36;11.57;84.21
68177;DHT22;56478;50.982;7.032;2023-11-21T13:47:03;11.63;84.42
68177;DHT22;56478;50.982;7.032;2023-11-21T13:49:30;11.67;84.43
68177;DHT22;56478;50.982;7.032;2023-11-21T13:52:01;11.62;84.86
68177;DHT22;56478;50.982;7.032;2023-11-21T13:54:27;11.70;84.74
68177;DHT22;56478;50.982;7.032;2023-11-21T13:56:53;11.73;84.43
68177;DHT22;56478;50.982;7.032;2023-11-21T13:59:20;11.64;85.26
68177;DHT22;56478;50.982;7.032;2023-11-21T14:01:50;11.73;84.46
68177;DHT22;56478;50.982;7.032;2023-11-21T14:04:35;11.60;84.49
68177;DHT22;56478;50.982;7.032;2023-11-21T14:07:19;11.59;84.46
68177;DHT22;56478;50.982;7.032;2023-11-21T14:09:57;11.54;85.23
68177;DHT22;56478;50.982;7.032;2023-11-21T14:12:23;11.56;85.34
68177;DHT22;56478;50.982;7.032;2023-11-21T14:14:49;11.62;84.38
68177;DHT22;56478;50.982;7.032;2023-11-21T14:17:14;11.59;84.92
68177;DHT22;56478;50.982;7.032;2023-11-21T14:19:40;11.54;85.20
68177;DHT22;56478;50.982;7.032;2023-11-21T14:22:08;11.52;85.82
68177;DHT22;56478;50.982;7.032;2023-11-21T14:24:35;11.52;85.21
68177;DHT22;56478;50.982;7.032;2023-11-21T14:27:00;11.47;85.42
68177;DHT22;56478;50.982;7.032;2023-11-21T14:29:26;11.52;85.29
68177;DHT22;56478;50.982;7.032;2023-11-21T14:31:52;11.46;85.28
68177;DHT22;56478;50.982;7.032;2023-11-21T14:34:21;11.43;85.75
68177;DHT22;56478;50.982;7.032;2023-11-21T14:36:47;11.40;85.59
68177;DHT22;56478;50.982;7.032;2023-11-21T14:39:14;11.47;85.15
68177;DHT22;56478;50.982;7.032;2023-11-21T14:41:51;11.44;85.65
68177;DHT22;56478;50.982;7.032;2023-11-21T14:44:18;11.49;85.33
68177;DHT22;56478;50.982;7.032;2023-11-21T14:46:43;11.43;85.45
68177;DHT22;56478;50.982;7.032;2023-11-21T14:49:14;11.29;86.18
68177;DHT22;56478;50.982;7.032;2023-11-21T14:51:52;11.33;86.72
68177;DHT22;56478;50.982;7.032;2023-11-21T14:54:33;11.29;87.04
68177;DHT22;56478;50.982;7.032;2023-11-21T14:57:14;11.32;87.91
68177;DHT22;56478;50.982;7.032;2023-11-21T14:59:46;11.19;88.38
68177;DHT22;56478;50.982;7.032;2023-11-21T15:02:19;11.25;88.86
68177;DHT22;56478;50.982;7.032;2023-11-21T15:05:07;11.19;89.21
68177;DHT22;56478;50.982;7.032;2023-11-21T15:07:39;11.07;89.42
68177;DHT22;56478;50.982;7.032;2023-11-21T15:10:04;11.12;89.96
68177;DHT22;56478;50.982;7.032;2023-11-21T15:12:36;11.07;90.22
68177;DHT22;56478;50.982;7.032;2023-11-21T15:15:03;11.00;90.10
68177;DHT22;56478;50.982;7.032;2023-11-21T15:17:29;11.05;90.27
68177;DHT22;56478;50.982;7.032;2023-11-21T15:19:57;11.01;90.45
68177;DHT22;56478;50.982;7.032;2023-11-21T15:22:23;10.98;90.86
68177;DHT22;56478;50.982;7.032;2023-11-21T15:24:48;11.00;90.14
68177;DHT22;56478;50.982;7.032;2023-11-21T15:27:15;11.01;90.20
68177;DHT22;56478;50.982;7.032;2023-11-21T15:29:41;11.02;90.03
68177;DHT22;56478;50.982;7.032;2023-11-21T15:32:06;10.98;90.12
68177;DHT22;56478;50.982;7.032;2023-11-21T15:34:33;11.04;89.78
68177;DHT22;56478;50.982;7.032;2023-11-21T15:36:58;11.02;90.10
68177;DHT22;56478;50.982;7.032;2023-11-21T15:39:23;11.02;89.96
68177;DHT22;56478;50.982;7.032;2023-11-21T15:41:54;10.97;90.26
68177;DHT22;56478;50.982;7.032;2023-11-21T15:44:19;11.02;90.21
68177;DHT22;56478;50.982;7.032;2023-11-21T15:46:45;11.04;90.06
68177;DHT22;56478;50.982;7.032;2023-11-21T15:49:10;11.07;89.83
68177;DHT22;56478;50.982;7.032;2023-11-21T15:51:44;11.09;90.11
68177;DHT22;56478;50.982;7.032;2023-11-21T15:54:20;11.05;89.93
68177;DHT22;56478;50.982;7.032;2023-11-21T15:56:47;11.05;90.10
68177;DHT22;56478;50.982;7.032;2023-11-21T15:59:12;11.02;90.03